sensor_id;sensor_type;location;lat;lon;timestamp;P1;durP1;ratioP1;P2;durP2;ratioP2
45049;SDS011;61798;48.048;-1.928;2022-10-31T00:00:05;12.02;;;3.47;;
45049;SDS011;61798;48.048;-1.928;2022-10-31T00:02:14;17.55;;;3.45;;
45049;SDS011;61798;48.048;-1.928;2022-10-31T00:04:20;13.02;;;3.28;;
45049;SDS011;61798;48.048;-1.928;2022-10-31T00:06:26;15.13;;;3.70;;
45049;SDS011;61798;48.048;-1.928;2022-10-31T00:08:32;11.38;;;3.15;;
45049;SDS011;61798;48.048;-1.928;2022-10-31T00:10:39;7.97;;;2.92;;
45049;SDS011;61798;48.048;-1.928;2022-10-31T00:12:46;11.38;;;3.10;;
45049;SDS011;61798;48.048;-1.928;2022-10-31T00:14:52;15.32;;;4.53;;
45049;SDS011;61798;48.048;-1.928;2022-10-31T00:16:58;15.60;;;3.53;;
45049;SDS011;61798;48.048;-1.928;2022-10-31T00:19:05;8.48;;;3.50;;
45049;SDS011;61798;48.048;-1.928;2022-10-31T00:21:12;14.25;;;3.05;;
45049;SDS011;61798;48.048;-1.928;2022-10-31T00:23:18;8.93;;;3.03;;
45049;SDS011;61798;48.048;-1.928;2022-10-31T00:25:24;8.95;;;3.40;;
45049;SDS011;61798;48.048;-1.928;2022-10-31T00:27:30;11.90;;;3.28;;
45049;SDS011;61798;48.048;-1.928;2022-10-31T00:29:36;10.25;;;3.00;;
45049;SDS011;61798;48.048;-1.928;2022-10-31T00:31:42;17.27;;;3.40;;
45049;SDS011;61798;48.048;-1.928;2022-10-31T00:33:48;10.85;;;3.25;;
45049;SDS011;61798;48.048;-1.928;2022-10-31T00:35:55;16.52;;;3.83;;
45049;SDS011;61798;48.048;-1.928;2022-10-31T00:38:01;10.85;;;3.33;;
45049;SDS011;61798;48.048;-1.928;2022-10-31T00:40:07;17.58;;;3.22;;
45049;SDS011;61798;48.048;-1.928;2022-10-31T00:42:14;11.05;;;3.60;;
45049;SDS011;61798;48.048;-1.928;2022-10-31T00:44:20;13.15;;;3.63;;
45049;SDS011;61798;48.048;-1.928;2022-10-31T00:46:26;16.48;;;4.05;;
45049;SDS011;61798;48.048;-1.928;2022-10-31T00:48:33;11.38;;;3.53;;
45049;SDS011;61798;48.048;-1.928;2022-10-31T00:50:39;11.15;;;3.33;;
45049;SDS011;61798;48.048;-1.928;2022-10-31T00:52:45;11.88;;;3.50;;
45049;SDS011;61798;48.048;-1.928;2022-10-31T00:54:51;16.33;;;3.72;;
45049;SDS011;61798;48.048;-1.928;2022-10-31T00:56:58;8.80;;;3.17;;
45049;SDS011;61798;48.048;-1.928;2022-10-31T00:59:04;10.52;;;2.80;;
45049;SDS011;61798;48.048;-1.928;2022-10-31T01:01:09;8.88;;;3.00;;
45049;SDS011;61798;48.048;-1.928;2022-10-31T01:03:15;11.23;;;3.40;;
45049;SDS011;61798;48.048;-1.928;2022-10-31T01:05:21;15.13;;;3.42;;
45049;SDS011;61798;48.048;-1.928;2022-10-31T01:07:28;9.38;;;3.15;;
45049;SDS011;61798;48.048;-1.928;2022-10-31T01:09:34;11.00;;;3.50;;
45049;SDS011;61798;48.048;-1.928;2022-10-31T01:11:41;14.10;;;3.40;;
45049;SDS011;61798;48.048;-1.928;2022-10-31T01:13:47;9.98;;;2.95;;
45049;SDS011;61798;48.048;-1.928;2022-10-31T01:15:55;15.95;;;3.50;;
45049;SDS011;61798;48.048;-1.928;2022-10-31T01:18:02;12.90;;;3.58;;
45049;SDS011;61798;48.048;-1.928;2022-10-31T01:20:09;11.18;;;3.35;;
45049;SDS011;61798;48.048;-1.928;2022-10-31T01:22:15;16.65;;;3.38;;
45049;SDS011;61798;48.048;-1.928;2022-10-31T01:24:21;17.70;;;4.10;;
45049;SDS011;61798;48.048;-1.928;2022-10-31T01:26:28;17.08;;;4.40;;
45049;SDS011;61798;48.048;-1.928;2022-10-31T01:28:37;16.10;;;3.75;;
45049;SDS011;61798;48.048;-1.928;2022-10-31T01:30:44;15.52;;;3.10;;
45049;SDS011;61798;48.048;-1.928;2022-10-31T01:32:50;15.68;;;3.75;;
45049;SDS011;61798;48.048;-1.928;2022-10-31T01:34:56;11.60;;;3.75;;
45049;SDS011;61798;48.048;-1.928;2022-10-31T01:37:02;12.73;;;3.72;;
45049;SDS011;61798;48.048;-1.928;2022-10-31T01:39:13;11.65;;;3.72;;
45049;SDS011;61798;48.048;-1.928;2022-10-31T01:41:21;9.05;;;3.38;;
45049;SDS011;61798;48.048;-1.928;2022-10-31T01:43:42;12.18;;;4.10;;
45049;SDS011;61798;48.048;-1.928;2022-10-31T01:45:53;12.65;;;4.00;;
45049;SDS011;61798;48.048;-1.928;2022-10-31T01:48:00;9.10;;;3.40;;
45049;SDS011;61798;48.048;-1.928;2022-10-31T01:50:10;15.95;;;4.18;;
45049;SDS011;61798;48.048;-1.928;2022-10-31T01:54:37;17.40;;;3.70;;
45049;SDS011;61798;48.048;-1.928;2022-10-31T01:56:49;19.73;;;4.53;;
45049;SDS011;61798;48.048;-1.928;2022-10-31T01:58:58;12.07;;;4.68;;
45049;SDS011;61798;48.048;-1.928;2022-10-31T02:01:06;12.02;;;4.53;;
45049;SDS011;61798;48.048;-1.928;2022-10-31T02:03:13;13.27;;;4.32;;
45049;SDS011;61798;48.048;-1.928;2022-10-31T02:05:20;16.40;;;4.15;;
45049;SDS011;61798;48.048;-1.928;2022-10-31T02:07:35;13.88;;;4.45;;
45049;SDS011;61798;48.048;-1.928;2022-10-31T02:09:48;15.32;;;4.63;;
45049;SDS011;61798;48.048;-1.928;2022-10-31T02:11:57;12.05;;;4.95;;
45049;SDS011;61798;48.048;-1.928;2022-10-31T02:14:04;12.63;;;4.82;;
45049;SDS011;61798;48.048;-1.928;2022-10-31T02:16:10;10.88;;;4.20;;
45049;SDS011;61798;48.048;-1.928;2022-10-31T02:18:17;12.35;;;4.80;;
45049;SDS011;61798;48.048;-1.928;2022-10-31T02:20:24;36.78;;;4.93;;
45049;SDS011;61798;48.048;-1.928;2022-10-31T02:22:40;15.13;;;5.05;;
45049;SDS011;61798;48.048;-1.928;2022-10-31T02:27:39;19.20;;;4.85;;
45049;SDS011;61798;48.048;-1.928;2022-10-31T02:30:06;19.33;;;4.70;;
45049;SDS011;61798;48.048;-1.928;2022-10-31T02:36:56;14.98;;;5.80;;
45049;SDS011;61798;48.048;-1.928;2022-10-31T02:39:11;11.25;;;5.32;;
45049;SDS011;61798;48.048;-1.928;2022-10-31T02:44:00;24.58;;;5.82;;
45049;SDS011;61798;48.048;-1.928;2022-10-31T02:46:38;19.70;;;5.40;;
45049;SDS011;61798;48.048;-1.928;2022-10-31T02:48:50;11.02;;;5.10;;
45049;SDS011;61798;48.048;-1.928;2022-10-31T02:51:01;32.17;;;5.45;;
45049;SDS011;61798;48.048;-1.928;2022-10-31T02:53:09;11.27;;;4.72;;
45049;SDS011;61798;48.048;-1.928;2022-10-31T02:57:33;12.63;;;4.65;;
45049;SDS011;61798;48.048;-1.928;2022-10-31T02:59:44;28.70;;;4.45;;
45049;SDS011;61798;48.048;-1.928;2022-10-31T03:02:02;15.02;;;4.07;;
45049;SDS011;61798;48.048;-1.928;2022-10-31T03:06:49;30.92;;;3.35;;
45049;SDS011;61798;48.048;-1.928;2022-10-31T03:11:31;16.40;;;4.03;;
45049;SDS011;61798;48.048;-1.928;2022-10-31T03:13:46;10.55;;;3.80;;
45049;SDS011;61798;48.048;-1.928;2022-10-31T03:16:02;12.52;;;3.60;;
45049;SDS011;61798;48.048;-1.928;2022-10-31T03:18:23;9.77;;;4.95;;
45049;SDS011;61798;48.048;-1.928;2022-10-31T03:23:25;50.95;;;4.55;;
45049;SDS011;61798;48.048;-1.928;2022-10-31T03:25:34;18.85;;;3.83;;
45049;SDS011;61798;48.048;-1.928;2022-10-31T03:27:42;15.38;;;4.03;;
45049;SDS011;61798;48.048;-1.928;2022-10-31T03:29:50;40.03;;;4.15;;
45049;SDS011;61798;48.048;-1.928;2022-10-31T03:32:02;22.15;;;4.47;;
45049;SDS011;61798;48.048;-1.928;2022-10-31T03:34:12;5.45;;;3.33;;
45049;SDS011;61798;48.048;-1.928;2022-10-31T03:36:19;21.45;;;4.03;;
45049;SDS011;61798;48.048;-1.928;2022-10-31T03:38:26;11.57;;;3.67;;
45049;SDS011;61798;48.048;-1.928;2022-10-31T03:40:34;26.55;;;3.50;;
45049;SDS011;61798;48.048;-1.928;2022-10-31T03:42:43;13.68;;;3.60;;
45049;SDS011;61798;48.048;-1.928;2022-10-31T03:44:56;26.13;;;3.30;;
45049;SDS011;61798;48.048;-1.928;2022-10-31T03:47:05;14.77;;;3.53;;
45049;SDS011;61798;48.048;-1.928;2022-10-31T03:49:12;7.82;;;3.20;;
45049;SDS011;61798;48.048;-1.928;2022-10-31T03:51:22;15.20;;;3.60;;
45049;SDS011;61798;48.048;-1.928;2022-10-31T03:57:18;43.85;;;3.80;;
45049;SDS011;61798;48.048;-1.928;2022-10-31T04:02:06;8.27;;;3.65;;
45049;SDS011;61798;48.048;-1.928;2022-10-31T04:04:17;5.10;;;3.72;;
45049;SDS011;61798;48.048;-1.928;2022-10-31T04:06:25;7.97;;;3.85;;
45049;SDS011;61798;48.048;-1.928;2022-10-31T04:08:32;5.57;;;3.38;;
45049;SDS011;61798;48.048;-1.928;2022-10-31T04:10:43;17.40;;;4.43;;
45049;SDS011;61798;48.048;-1.928;2022-10-31T04:13:01;27.77;;;3.67;;
45049;SDS011;61798;48.048;-1.928;2022-10-31T04:15:11;18.67;;;3.45;;
45049;SDS011;61798;48.048;-1.928;2022-10-31T04:17:19;11.82;;;3.53;;
45049;SDS011;61798;48.048;-1.928;2022-10-31T04:19:27;23.70;;;3.38;;
45049;SDS011;61798;48.048;-1.928;2022-10-31T04:21:33;50.25;;;3.75;;
45049;SDS011;61798;48.048;-1.928;2022-10-31T04:23:39;11.15;;;3.13;;
45049;SDS011;61798;48.048;-1.928;2022-10-31T04:25:45;3.85;;;3.13;;
45049;SDS011;61798;48.048;-1.928;2022-10-31T04:27:52;9.95;;;3.05;;
45049;SDS011;61798;48.048;-1.928;2022-10-31T04:29:58;6.97;;;2.58;;
45049;SDS011;61798;48.048;-1.928;2022-10-31T04:32:05;22.60;;;2.70;;
45049;SDS011;61798;48.048;-1.928;2022-10-31T04:34:11;22.08;;;2.78;;
45049;SDS011;61798;48.048;-1.928;2022-10-31T04:36:17;7.30;;;2.40;;
45049;SDS011;61798;48.048;-1.928;2022-10-31T04:38:23;18.52;;;2.65;;
45049;SDS011;61798;48.048;-1.928;2022-10-31T04:40:28;38.53;;;2.83;;
45049;SDS011;61798;48.048;-1.928;2022-10-31T04:42:34;4.53;;;2.40;;
45049;SDS011;61798;48.048;-1.928;2022-10-31T04:44:40;7.30;;;2.35;;
45049;SDS011;61798;48.048;-1.928;2022-10-31T04:46:46;23.77;;;2.50;;
45049;SDS011;61798;48.048;-1.928;2022-10-31T04:48:53;11.60;;;2.60;;
45049;SDS011;61798;48.048;-1.928;2022-10-31T04:50:59;9.55;;;2.45;;
45049;SDS011;61798;48.048;-1.928;2022-10-31T04:53:05;7.85;;;2.67;;
45049;SDS011;61798;48.048;-1.928;2022-10-31T04:55:12;10.38;;;2.65;;
45049;SDS011;61798;48.048;-1.928;2022-10-31T04:57:19;14.20;;;2.55;;
45049;SDS011;61798;48.048;-1.928;2022-10-31T04:59:25;4.28;;;2.60;;
45049;SDS011;61798;48.048;-1.928;2022-10-31T05:01:30;9.80;;;2.30;;
45049;SDS011;61798;48.048;-1.928;2022-10-31T05:03:36;37.17;;;2.85;;
45049;SDS011;61798;48.048;-1.928;2022-10-31T05:05:44;4.38;;;2.38;;
45049;SDS011;61798;48.048;-1.928;2022-10-31T05:07:51;24.48;;;2.50;;
45049;SDS011;61798;48.048;-1.928;2022-10-31T05:09:57;21.33;;;2.63;;
45049;SDS011;61798;48.048;-1.928;2022-10-31T05:12:03;27.23;;;2.35;;
45049;SDS011;61798;48.048;-1.928;2022-10-31T05:14:09;3.20;;;2.28;;
45049;SDS011;61798;48.048;-1.928;2022-10-31T05:16:15;2.53;;;2.10;;
45049;SDS011;61798;48.048;-1.928;2022-10-31T05:18:21;4.07;;;2.40;;
45049;SDS011;61798;48.048;-1.928;2022-10-31T05:20:29;7.20;;;2.30;;
45049;SDS011;61798;48.048;-1.928;2022-10-31T05:22:35;4.22;;;2.25;;
45049;SDS011;61798;48.048;-1.928;2022-10-31T05:24:41;6.97;;;2.05;;
45049;SDS011;61798;48.048;-1.928;2022-10-31T05:26:48;32.53;;;1.88;;
45049;SDS011;61798;48.048;-1.928;2022-10-31T05:28:55;15.35;;;1.90;;
45049;SDS011;61798;48.048;-1.928;2022-10-31T05:31:02;23.90;;;2.30;;
45049;SDS011;61798;48.048;-1.928;2022-10-31T05:33:08;2.88;;;1.65;;
45049;SDS011;61798;48.048;-1.928;2022-10-31T05:35:16;24.73;;;2.60;;
45049;SDS011;61798;48.048;-1.928;2022-10-31T05:37:31;16.67;;;2.20;;
45049;SDS011;61798;48.048;-1.928;2022-10-31T05:39:38;6.35;;;2.22;;
45049;SDS011;61798;48.048;-1.928;2022-10-31T05:41:44;16.77;;;2.55;;
45049;SDS011;61798;48.048;-1.928;2022-10-31T05:43:50;34.33;;;2.67;;
45049;SDS011;61798;48.048;-1.928;2022-10-31T05:45:57;5.95;;;2.45;;
45049;SDS011;61798;48.048;-1.928;2022-10-31T05:48:03;3.25;;;2.50;;
45049;SDS011;61798;48.048;-1.928;2022-10-31T05:50:10;3.08;;;2.60;;
45049;SDS011;61798;48.048;-1.928;2022-10-31T05:52:17;39.70;;;2.90;;
45049;SDS011;61798;48.048;-1.928;2022-10-31T05:54:24;4.03;;;2.65;;
45049;SDS011;61798;48.048;-1.928;2022-10-31T05:56:30;2.90;;;2.50;;
45049;SDS011;61798;48.048;-1.928;2022-10-31T05:58:36;41.00;;;2.55;;
45049;SDS011;61798;48.048;-1.928;2022-10-31T06:00:42;49.50;;;2.90;;
45049;SDS011;61798;48.048;-1.928;2022-10-31T06:02:48;21.75;;;2.75;;
45049;SDS011;61798;48.048;-1.928;2022-10-31T06:04:54;44.28;;;3.17;;
45049;SDS011;61798;48.048;-1.928;2022-10-31T06:07:00;4.97;;;2.60;;
45049;SDS011;61798;48.048;-1.928;2022-10-31T06:09:06;11.15;;;3.00;;
45049;SDS011;61798;48.048;-1.928;2022-10-31T06:11:12;10.05;;;2.50;;
45049;SDS011;61798;48.048;-1.928;2022-10-31T06:13:18;11.70;;;2.78;;
45049;SDS011;61798;48.048;-1.928;2022-10-31T06:15:24;43.13;;;3.92;;
45049;SDS011;61798;48.048;-1.928;2022-10-31T06:17:30;74.22;;;4.28;;
45049;SDS011;61798;48.048;-1.928;2022-10-31T06:19:36;13.45;;;2.60;;
45049;SDS011;61798;48.048;-1.928;2022-10-31T06:21:42;32.10;;;2.70;;
45049;SDS011;61798;48.048;-1.928;2022-10-31T06:23:48;3.38;;;2.65;;
45049;SDS011;61798;48.048;-1.928;2022-10-31T06:25:54;72.45;;;2.92;;
45049;SDS011;61798;48.048;-1.928;2022-10-31T06:28:00;15.57;;;2.42;;
45049;SDS011;61798;48.048;-1.928;2022-10-31T06:30:07;24.00;;;3.25;;
45049;SDS011;61798;48.048;-1.928;2022-10-31T06:32:13;4.55;;;3.22;;
45049;SDS011;61798;48.048;-1.928;2022-10-31T06:34:21;3.40;;;2.90;;
45049;SDS011;61798;48.048;-1.928;2022-10-31T06:36:28;12.50;;;2.95;;
45049;SDS011;61798;48.048;-1.928;2022-10-31T06:38:35;39.63;;;3.90;;
45049;SDS011;61798;48.048;-1.928;2022-10-31T06:40:41;106.40;;;3.80;;
45049;SDS011;61798;48.048;-1.928;2022-10-31T06:42:55;5.70;;;2.65;;
45049;SDS011;61798;48.048;-1.928;2022-10-31T06:45:05;12.23;;;3.05;;
45049;SDS011;61798;48.048;-1.928;2022-10-31T06:47:13;119.88;;;5.25;;
45049;SDS011;61798;48.048;-1.928;2022-10-31T06:49:19;43.95;;;3.55;;
45049;SDS011;61798;48.048;-1.928;2022-10-31T06:51:25;112.18;;;4.40;;
45049;SDS011;61798;48.048;-1.928;2022-10-31T06:53:32;69.90;;;4.57;;
45049;SDS011;61798;48.048;-1.928;2022-10-31T06:55:40;10.98;;;2.97;;
45049;SDS011;61798;48.048;-1.928;2022-10-31T06:57:55;105.25;;;4.07;;
45049;SDS011;61798;48.048;-1.928;2022-10-31T07:00:06;25.33;;;3.58;;
45049;SDS011;61798;48.048;-1.928;2022-10-31T07:02:14;15.48;;;5.22;;
45049;SDS011;61798;48.048;-1.928;2022-10-31T07:04:21;5.55;;;3.53;;
45049;SDS011;61798;48.048;-1.928;2022-10-31T07:06:29;7.88;;;3.95;;
45049;SDS011;61798;48.048;-1.928;2022-10-31T07:08:36;29.88;;;3.97;;
45049;SDS011;61798;48.048;-1.928;2022-10-31T07:10:50;99.43;;;5.63;;
45049;SDS011;61798;48.048;-1.928;2022-10-31T07:12:59;14.60;;;4.63;;
45049;SDS011;61798;48.048;-1.928;2022-10-31T07:15:09;142.75;;;5.38;;
45049;SDS011;61798;48.048;-1.928;2022-10-31T07:17:15;4.80;;;3.30;;
45049;SDS011;61798;48.048;-1.928;2022-10-31T07:19:23;23.67;;;3.63;;
45049;SDS011;61798;48.048;-1.928;2022-10-31T07:21:30;9.27;;;3.70;;
45049;SDS011;61798;48.048;-1.928;2022-10-31T07:23:37;29.42;;;3.90;;
45049;SDS011;61798;48.048;-1.928;2022-10-31T07:25:43;60.95;;;4.53;;
45049;SDS011;61798;48.048;-1.928;2022-10-31T07:27:50;6.18;;;3.83;;
45049;SDS011;61798;48.048;-1.928;2022-10-31T07:29:56;32.15;;;4.68;;
45049;SDS011;61798;48.048;-1.928;2022-10-31T07:32:02;24.92;;;4.25;;
45049;SDS011;61798;48.048;-1.928;2022-10-31T07:34:10;5.07;;;3.83;;
45049;SDS011;61798;48.048;-1.928;2022-10-31T07:36:16;10.00;;;3.92;;
45049;SDS011;61798;48.048;-1.928;2022-10-31T07:38:23;9.55;;;4.20;;
45049;SDS011;61798;48.048;-1.928;2022-10-31T07:40:30;31.38;;;4.68;;
45049;SDS011;61798;48.048;-1.928;2022-10-31T07:42:38;5.38;;;4.03;;
45049;SDS011;61798;48.048;-1.928;2022-10-31T07:44:49;17.05;;;4.65;;
45049;SDS011;61798;48.048;-1.928;2022-10-31T07:46:56;6.43;;;4.50;;
45049;SDS011;61798;48.048;-1.928;2022-10-31T07:49:04;8.88;;;5.20;;
45049;SDS011;61798;48.048;-1.928;2022-10-31T07:51:20;7.38;;;4.53;;
45049;SDS011;61798;48.048;-1.928;2022-10-31T07:53:35;5.60;;;4.10;;
45049;SDS011;61798;48.048;-1.928;2022-10-31T07:57:59;6.22;;;3.95;;
45049;SDS011;61798;48.048;-1.928;2022-10-31T08:00:14;8.45;;;5.72;;
45049;SDS011;61798;48.048;-1.928;2022-10-31T08:02:21;7.75;;;5.60;;
45049;SDS011;61798;48.048;-1.928;2022-10-31T08:04:37;11.13;;;5.90;;
45049;SDS011;61798;48.048;-1.928;2022-10-31T08:06:44;14.25;;;7.53;;
45049;SDS011;61798;48.048;-1.928;2022-10-31T08:08:54;10.52;;;5.90;;
45049;SDS011;61798;48.048;-1.928;2022-10-31T08:11:05;9.75;;;6.25;;
45049;SDS011;61798;48.048;-1.928;2022-10-31T08:13:13;8.63;;;6.07;;
45049;SDS011;61798;48.048;-1.928;2022-10-31T08:15:24;12.85;;;6.28;;
45049;SDS011;61798;48.048;-1.928;2022-10-31T08:17:35;10.50;;;6.80;;
45049;SDS011;61798;48.048;-1.928;2022-10-31T08:19:46;12.35;;;6.50;;
45049;SDS011;61798;48.048;-1.928;2022-10-31T08:22:02;14.90;;;6.38;;
45049;SDS011;61798;48.048;-1.928;2022-10-31T08:24:10;11.35;;;6.55;;
45049;SDS011;61798;48.048;-1.928;2022-10-31T08:26:30;9.80;;;6.13;;
45049;SDS011;61798;48.048;-1.928;2022-10-31T08:28:38;10.52;;;6.07;;
45049;SDS011;61798;48.048;-1.928;2022-10-31T08:30:48;11.80;;;7.43;;
45049;SDS011;61798;48.048;-1.928;2022-10-31T08:33:06;10.18;;;7.32;;
45049;SDS011;61798;48.048;-1.928;2022-10-31T08:35:33;10.48;;;6.97;;
45049;SDS011;61798;48.048;-1.928;2022-10-31T08:37:51;9.85;;;6.40;;
45049;SDS011;61798;48.048;-1.928;2022-10-31T08:40:04;8.45;;;5.32;;
45049;SDS011;61798;48.048;-1.928;2022-10-31T08:42:19;8.68;;;5.97;;
45049;SDS011;61798;48.048;-1.928;2022-10-31T08:44:25;10.63;;;6.57;;
45049;SDS011;61798;48.048;-1.928;2022-10-31T08:46:35;10.32;;;6.53;;
45049;SDS011;61798;48.048;-1.928;2022-10-31T08:48:49;9.95;;;6.90;;
45049;SDS011;61798;48.048;-1.928;2022-10-31T08:51:00;15.95;;;6.97;;
45049;SDS011;61798;48.048;-1.928;2022-10-31T08:53:07;14.25;;;8.02;;
45049;SDS011;61798;48.048;-1.928;2022-10-31T08:55:20;12.30;;;7.22;;
45049;SDS011;61798;48.048;-1.928;2022-10-31T08:57:36;12.40;;;7.43;;
45049;SDS011;61798;48.048;-1.928;2022-10-31T08:59:44;8.75;;;5.72;;
45049;SDS011;61798;48.048;-1.928;2022-10-31T09:01:57;12.38;;;6.88;;
45049;SDS011;61798;48.048;-1.928;2022-10-31T09:04:07;9.55;;;6.53;;
45049;SDS011;61798;48.048;-1.928;2022-10-31T09:06:16;13.25;;;6.32;;
45049;SDS011;61798;48.048;-1.928;2022-10-31T09:08:33;12.55;;;6.00;;
45049;SDS011;61798;48.048;-1.928;2022-10-31T09:10:45;13.98;;;6.00;;
45049;SDS011;61798;48.048;-1.928;2022-10-31T09:13:03;9.43;;;6.32;;
45049;SDS011;61798;48.048;-1.928;2022-10-31T09:15:19;8.23;;;5.35;;
45049;SDS011;61798;48.048;-1.928;2022-10-31T09:17:29;8.15;;;5.30;;
45049;SDS011;61798;48.048;-1.928;2022-10-31T09:19:43;11.18;;;5.25;;
45049;SDS011;61798;48.048;-1.928;2022-10-31T09:21:53;11.20;;;6.00;;
45049;SDS011;61798;48.048;-1.928;2022-10-31T09:24:04;8.20;;;5.90;;
45049;SDS011;61798;48.048;-1.928;2022-10-31T09:26:12;8.05;;;6.05;;
45049;SDS011;61798;48.048;-1.928;2022-10-31T09:28:26;9.32;;;5.60;;
45049;SDS011;61798;48.048;-1.928;2022-10-31T09:30:34;8.43;;;5.72;;
45049;SDS011;61798;48.048;-1.928;2022-10-31T09:32:45;10.23;;;6.93;;
45049;SDS011;61798;48.048;-1.928;2022-10-31T09:34:51;11.27;;;5.65;;
45049;SDS011;61798;48.048;-1.928;2022-10-31T09:36:58;11.90;;;6.07;;
45049;SDS011;61798;48.048;-1.928;2022-10-31T09:39:06;10.43;;;5.00;;
45049;SDS011;61798;48.048;-1.928;2022-10-31T09:44:27;9.15;;;5.25;;
45049;SDS011;61798;48.048;-1.928;2022-10-31T09:49:43;9.20;;;5.22;;
45049;SDS011;61798;48.048;-1.928;2022-10-31T09:55:14;8.27;;;4.90;;
45049;SDS011;61798;48.048;-1.928;2022-10-31T09:57:30;6.38;;;4.30;;
45049;SDS011;61798;48.048;-1.928;2022-10-31T09:59:46;7.60;;;4.90;;
45049;SDS011;61798;48.048;-1.928;2022-10-31T10:01:56;10.50;;;5.40;;
45049;SDS011;61798;48.048;-1.928;2022-10-31T10:06:35;13.15;;;5.63;;
45049;SDS011;61798;48.048;-1.928;2022-10-31T10:08:49;7.55;;;5.38;;
45049;SDS011;61798;48.048;-1.928;2022-10-31T10:16:18;10.57;;;6.10;;
45049;SDS011;61798;48.048;-1.928;2022-10-31T10:18:38;8.27;;;5.25;;
45049;SDS011;61798;48.048;-1.928;2022-10-31T10:21:05;12.32;;;6.90;;
45049;SDS011;61798;48.048;-1.928;2022-10-31T10:23:35;9.32;;;6.25;;
45049;SDS011;61798;48.048;-1.928;2022-10-31T10:26:01;14.38;;;7.05;;
45049;SDS011;61798;48.048;-1.928;2022-10-31T10:28:26;14.60;;;7.68;;
45049;SDS011;61798;48.048;-1.928;2022-10-31T10:30:47;12.45;;;7.65;;
45049;SDS011;61798;48.048;-1.928;2022-10-31T10:32:59;17.05;;;7.30;;
45049;SDS011;61798;48.048;-1.928;2022-10-31T10:35:20;13.30;;;8.07;;
45049;SDS011;61798;48.048;-1.928;2022-10-31T10:37:34;15.30;;;7.13;;
45049;SDS011;61798;48.048;-1.928;2022-10-31T10:39:47;15.65;;;8.68;;
45049;SDS011;61798;48.048;-1.928;2022-10-31T10:41:59;14.90;;;8.68;;
45049;SDS011;61798;48.048;-1.928;2022-10-31T10:44:25;14.98;;;8.35;;
45049;SDS011;61798;48.048;-1.928;2022-10-31T10:46:51;16.60;;;7.97;;
45049;SDS011;61798;48.048;-1.928;2022-10-31T10:56:36;15.85;;;9.10;;
45049;SDS011;61798;48.048;-1.928;2022-10-31T10:58:52;17.13;;;9.50;;
45049;SDS011;61798;48.048;-1.928;2022-10-31T11:01:08;22.35;;;10.43;;
45049;SDS011;61798;48.048;-1.928;2022-10-31T11:03:27;14.38;;;8.68;;
45049;SDS011;61798;48.048;-1.928;2022-10-31T11:07:50;17.92;;;8.48;;
45049;SDS011;61798;48.048;-1.928;2022-10-31T11:10:05;17.00;;;7.68;;
45049;SDS011;61798;48.048;-1.928;2022-10-31T11:12:21;17.70;;;9.18;;
45049;SDS011;61798;48.048;-1.928;2022-10-31T11:14:29;14.52;;;8.95;;
45049;SDS011;61798;48.048;-1.928;2022-10-31T11:16:37;14.57;;;8.40;;
45049;SDS011;61798;48.048;-1.928;2022-10-31T11:18:49;16.23;;;8.50;;
45049;SDS011;61798;48.048;-1.928;2022-10-31T11:20:56;15.90;;;8.35;;
45049;SDS011;61798;48.048;-1.928;2022-10-31T11:23:04;11.85;;;7.95;;
45049;SDS011;61798;48.048;-1.928;2022-10-31T11:25:22;20.15;;;8.75;;
45049;SDS011;61798;48.048;-1.928;2022-10-31T11:27:31;15.75;;;8.35;;
45049;SDS011;61798;48.048;-1.928;2022-10-31T11:29:37;18.73;;;8.10;;
45049;SDS011;61798;48.048;-1.928;2022-10-31T11:31:44;13.75;;;8.18;;
45049;SDS011;61798;48.048;-1.928;2022-10-31T11:33:59;13.75;;;8.60;;
45049;SDS011;61798;48.048;-1.928;2022-10-31T11:36:16;22.30;;;9.05;;
45049;SDS011;61798;48.048;-1.928;2022-10-31T11:38:49;18.42;;;9.05;;
45049;SDS011;61798;48.048;-1.928;2022-10-31T11:41:13;17.48;;;9.32;;
45049;SDS011;61798;48.048;-1.928;2022-10-31T11:43:25;14.77;;;8.60;;
45049;SDS011;61798;48.048;-1.928;2022-10-31T11:45:32;18.63;;;10.00;;
45049;SDS011;61798;48.048;-1.928;2022-10-31T11:47:46;14.30;;;9.38;;
45049;SDS011;61798;48.048;-1.928;2022-10-31T11:49:54;19.27;;;10.53;;
45049;SDS011;61798;48.048;-1.928;2022-10-31T11:52:08;18.40;;;10.23;;
45049;SDS011;61798;48.048;-1.928;2022-10-31T11:54:28;19.70;;;10.38;;
45049;SDS011;61798;48.048;-1.928;2022-10-31T11:56:41;21.30;;;10.25;;
45049;SDS011;61798;48.048;-1.928;2022-10-31T11:59:01;20.33;;;9.95;;
45049;SDS011;61798;48.048;-1.928;2022-10-31T12:01:24;19.42;;;10.82;;
45049;SDS011;61798;48.048;-1.928;2022-10-31T12:03:34;18.58;;;10.55;;
45049;SDS011;61798;48.048;-1.928;2022-10-31T12:05:44;20.27;;;11.90;;
45049;SDS011;61798;48.048;-1.928;2022-10-31T12:07:52;18.95;;;11.23;;
45049;SDS011;61798;48.048;-1.928;2022-10-31T12:09:59;25.65;;;12.00;;
45049;SDS011;61798;48.048;-1.928;2022-10-31T12:16:41;17.45;;;11.05;;
45049;SDS011;61798;48.048;-1.928;2022-10-31T12:19:19;22.50;;;11.38;;
45049;SDS011;61798;48.048;-1.928;2022-10-31T12:26:23;23.48;;;11.77;;
45049;SDS011;61798;48.048;-1.928;2022-10-31T12:31:38;21.55;;;11.98;;
45049;SDS011;61798;48.048;-1.928;2022-10-31T12:36:47;20.42;;;12.45;;
45049;SDS011;61798;48.048;-1.928;2022-10-31T12:44:14;17.00;;;11.07;;
45049;SDS011;61798;48.048;-1.928;2022-10-31T12:49:54;22.98;;;11.38;;
45049;SDS011;61798;48.048;-1.928;2022-10-31T12:54:49;19.77;;;11.70;;
45049;SDS011;61798;48.048;-1.928;2022-10-31T13:04:43;20.02;;;11.93;;
45049;SDS011;61798;48.048;-1.928;2022-10-31T13:07:06;20.40;;;11.60;;
45049;SDS011;61798;48.048;-1.928;2022-10-31T13:09:23;21.55;;;12.00;;
45049;SDS011;61798;48.048;-1.928;2022-10-31T13:11:42;23.40;;;11.48;;
45049;SDS011;61798;48.048;-1.928;2022-10-31T13:16:22;22.38;;;12.30;;
45049;SDS011;61798;48.048;-1.928;2022-10-31T13:18:46;20.88;;;12.00;;
45049;SDS011;61798;48.048;-1.928;2022-10-31T13:20:56;23.20;;;12.23;;
45049;SDS011;61798;48.048;-1.928;2022-10-31T13:25:40;20.02;;;11.98;;
45049;SDS011;61798;48.048;-1.928;2022-10-31T13:27:54;25.38;;;12.27;;
45049;SDS011;61798;48.048;-1.928;2022-10-31T13:30:28;22.30;;;12.68;;
45049;SDS011;61798;48.048;-1.928;2022-10-31T13:32:39;17.67;;;11.07;;
45049;SDS011;61798;48.048;-1.928;2022-10-31T13:34:52;23.63;;;11.73;;
45049;SDS011;61798;48.048;-1.928;2022-10-31T13:37:12;20.17;;;12.10;;
45049;SDS011;61798;48.048;-1.928;2022-10-31T13:45:22;19.92;;;11.93;;
45049;SDS011;61798;48.048;-1.928;2022-10-31T13:47:28;22.73;;;11.45;;
45049;SDS011;61798;48.048;-1.928;2022-10-31T13:49:39;22.60;;;11.95;;
45049;SDS011;61798;48.048;-1.928;2022-10-31T13:51:47;18.80;;;10.75;;
45049;SDS011;61798;48.048;-1.928;2022-10-31T13:53:58;25.48;;;11.77;;
45049;SDS011;61798;48.048;-1.928;2022-10-31T13:58:41;15.82;;;10.48;;
45049;SDS011;61798;48.048;-1.928;2022-10-31T14:03:28;24.08;;;11.60;;
45049;SDS011;61798;48.048;-1.928;2022-10-31T14:05:35;18.50;;;9.85;;
45049;SDS011;61798;48.048;-1.928;2022-10-31T14:07:43;20.17;;;10.23;;
45049;SDS011;61798;48.048;-1.928;2022-10-31T14:12:40;21.60;;;10.88;;
45049;SDS011;61798;48.048;-1.928;2022-10-31T14:14:52;17.88;;;10.75;;
45049;SDS011;61798;48.048;-1.928;2022-10-31T14:17:04;17.58;;;10.30;;
45049;SDS011;61798;48.048;-1.928;2022-10-31T14:19:16;19.52;;;10.27;;
45049;SDS011;61798;48.048;-1.928;2022-10-31T14:23:38;22.60;;;10.63;;
45049;SDS011;61798;48.048;-1.928;2022-10-31T14:25:46;18.85;;;10.85;;
45049;SDS011;61798;48.048;-1.928;2022-10-31T14:27:51;17.08;;;10.90;;
45049;SDS011;61798;48.048;-1.928;2022-10-31T14:30:07;17.48;;;10.55;;
45049;SDS011;61798;48.048;-1.928;2022-10-31T14:32:23;20.38;;;10.80;;
45049;SDS011;61798;48.048;-1.928;2022-10-31T14:34:37;23.65;;;10.32;;
45049;SDS011;61798;48.048;-1.928;2022-10-31T14:36:53;17.42;;;9.23;;